Terminal Aerodrome Forecast
Issued by NWS

Home | Current Version | Previous Version | Text Only | Print | Product List | Glossary On
Versions: 1 2 3 4 5 6 7 8 9 10 11 12
000
FTUS43 KSGF 101725
TAFBBG
TAF
KBBG 101725Z 1018/1118 13010KT P6SM SCT050 BKN250
     FM102100 15008KT P6SM SCT050 SCT150
     FM110800 16008KT P6SM BKN110 WS020/20035KT
     FM111300 17010KT P6SM BKN015 BKN020=

USA.gov is the U.S. government's official web portal to all federal, state and local government web resources and services.